createdAt,value
2016-10-27T00:00:18.227Z,7.84
2016-10-27T00:01:27.811Z,7.74
2016-10-27T00:02:37.400Z,7.69
2016-10-27T00:03:47.275Z,7.84
2016-10-27T00:04:57.218Z,7.8
2016-10-27T00:06:06.886Z,7.74
2016-10-27T00:07:16.609Z,7.69
2016-10-27T00:08:26.494Z,7.74
2016-10-27T00:09:36.398Z,7.64
2016-10-27T00:10:46.972Z,7.69
2016-10-27T00:11:56.445Z,7.59
2016-10-27T00:13:06.163Z,7.58
2016-10-27T00:14:16.543Z,7.59
2016-10-27T00:15:26.101Z,7.48
2016-10-27T00:16:36.674Z,7.5
2016-10-27T00:17:46.377Z,7.58
2016-10-27T00:18:56.169Z,7.53
2016-10-27T00:20:06.038Z,7.59
2016-10-27T00:21:16.005Z,7.59
2016-10-27T00:22:25.829Z,7.62
2016-10-27T00:23:35.346Z,7.48
2016-10-27T00:24:44.893Z,7.5
2016-10-27T00:25:54.720Z,7.47
2016-10-27T00:27:04.200Z,7.47
2016-10-27T00:28:14.779Z,7.48
2016-10-27T00:29:24.808Z,7.47
2016-10-27T00:30:34.472Z,7.37
2016-10-27T00:31:44.580Z,7.5
2016-10-27T00:32:54.358Z,7.44
2016-10-27T00:34:04.858Z,7.4
2016-10-27T00:35:14.576Z,7.43
2016-10-27T00:36:24.049Z,7.47
2016-10-27T00:37:33.736Z,7.46
2016-10-27T00:38:43.374Z,7.46
2016-10-27T00:39:53.641Z,7.48
2016-10-27T00:41:03.664Z,7.4
2016-10-27T00:42:13.250Z,7.37
2016-10-27T00:43:22.721Z,7.4
2016-10-27T00:44:32.946Z,7.29
2016-10-27T00:45:43.050Z,7.31
2016-10-27T00:46:53.049Z,7.32
2016-10-27T00:48:02.758Z,7.37
2016-10-27T00:49:12.484Z,7.43
2016-10-27T00:50:22.555Z,7.31
2016-10-27T00:51:32.746Z,7.26
2016-10-27T00:52:42.923Z,7.39
2016-10-27T00:53:52.644Z,7.39
2016-10-27T00:55:02.233Z,7.36
2016-10-27T00:56:12.247Z,7.29
2016-10-27T00:57:23.391Z,7.26
2016-10-27T00:58:33.734Z,7.29
2016-10-27T00:59:43.308Z,7.18
2016-10-27T01:00:53.207Z,7.29
2016-10-27T01:02:03.146Z,7.26
2016-10-27T01:03:13.418Z,7.1
2016-10-27T01:04:22.973Z,7.15
2016-10-27T01:05:32.858Z,7.08
2016-10-27T01:06:42.891Z,7.13
2016-10-27T01:07:52.656Z,7.14
2016-10-27T01:09:02.855Z,7.1
2016-10-27T01:10:12.533Z,7.11
2016-10-27T01:11:22.731Z,7.18
2016-10-27T01:12:32.271Z,7.13
2016-10-27T01:13:41.837Z,7.04
2016-10-27T01:14:51.751Z,7.03
2016-10-27T01:16:01.402Z,7.03
2016-10-27T01:17:11.357Z,7
2016-10-27T01:18:21.344Z,7.01
2016-10-27T01:19:30.908Z,7.04
2016-10-27T01:20:41.216Z,7
2016-10-27T01:21:51.541Z,6.93
2016-10-27T01:23:01.431Z,6.9
2016-10-27T01:24:11.213Z,6.87
2016-10-27T01:25:20.678Z,6.85
2016-10-27T01:26:30.639Z,6.85
2016-10-27T01:27:40.341Z,6.82
2016-10-27T01:28:50.038Z,6.85
2016-10-27T01:30:00.514Z,6.85
2016-10-27T01:31:11.415Z,6.85
2016-10-27T01:32:21.280Z,6.85
2016-10-27T01:33:31.248Z,6.8
2016-10-27T01:34:40.982Z,6.83
2016-10-27T01:35:51.143Z,6.74
2016-10-27T01:37:01.141Z,6.67
2016-10-27T01:38:11.073Z,6.77
2016-10-27T01:39:20.860Z,6.78
2016-10-27T01:40:30.461Z,6.75
2016-10-27T01:41:40.507Z,6.77
2016-10-27T01:42:50.745Z,6.78
2016-10-27T01:44:00.422Z,6.75
2016-10-27T01:45:10.567Z,6.8
2016-10-27T01:46:20.110Z,6.8
2016-10-27T01:47:30.107Z,6.74
2016-10-27T01:48:40.020Z,6.72
2016-10-27T01:49:50.219Z,6.72
2016-10-27T01:51:00.042Z,6.8
2016-10-27T01:52:09.992Z,6.74
2016-10-27T01:53:19.608Z,6.72
2016-10-27T01:54:29.213Z,6.75
2016-10-27T01:55:38.977Z,6.72
2016-10-27T01:56:48.494Z,6.71
2016-10-27T01:57:58.353Z,6.72
2016-10-27T01:59:08.222Z,6.56
2016-10-27T02:00:17.859Z,6.65
2016-10-27T02:01:27.729Z,6.56
2016-10-27T02:02:37.254Z,6.67
2016-10-27T02:03:46.953Z,6.68
2016-10-27T02:05:11.628Z,6.64
2016-10-27T02:06:21.345Z,6.68
2016-10-27T02:07:31.190Z,6.62
2016-10-27T02:08:41.529Z,6.64
2016-10-27T02:09:51.264Z,6.64
2016-10-27T02:11:01.801Z,6.62
2016-10-27T02:12:11.539Z,6.6
2016-10-27T02:13:21.626Z,6.46
2016-10-27T02:14:31.466Z,6.6
2016-10-27T02:15:41.090Z,6.59
2016-10-27T02:16:50.926Z,6.52
2016-10-27T02:18:00.797Z,6.47
2016-10-27T02:19:11.028Z,6.43
2016-10-27T02:20:20.548Z,6.5
2016-10-27T02:21:30.392Z,6.41
2016-10-27T02:22:39.889Z,6.44
2016-10-27T02:23:49.318Z,6.35
2016-10-27T02:24:59.166Z,6.32
2016-10-27T02:26:09.320Z,6.34
2016-10-27T02:27:18.885Z,6.31
2016-10-27T02:28:28.715Z,6.34
2016-10-27T02:29:38.164Z,6.28
2016-10-27T02:30:48.268Z,6.28
2016-10-27T02:31:58.426Z,6.34
2016-10-27T02:33:07.881Z,6.35
2016-10-27T02:34:17.370Z,6.31
2016-10-27T02:35:27.575Z,6.34
2016-10-27T02:36:37.473Z,6.34
2016-10-27T02:37:47.540Z,6.32
2016-10-27T02:38:56.965Z,6.28
2016-10-27T02:40:06.605Z,6.26
2016-10-27T02:41:16.392Z,6.22
2016-10-27T02:42:26.340Z,6.25
2016-10-27T02:45:44.589Z,6.25
2016-10-27T02:47:09.068Z,6.32
2016-10-27T02:48:18.826Z,6.29
2016-10-27T02:49:28.303Z,6.31
2016-10-27T02:50:38.245Z,6.35
2016-10-27T02:51:48.168Z,6.34
2016-10-27T02:52:57.629Z,6.36
2016-10-27T02:54:08.172Z,6.31
2016-10-27T02:55:18.564Z,6.36
2016-10-27T02:56:28.076Z,6.32
2016-10-27T02:57:37.938Z,6.34
2016-10-27T02:58:47.363Z,6.28
2016-10-27T02:59:57.809Z,6.28
2016-10-27T03:01:08.333Z,6.2
2016-10-27T03:02:18.136Z,6.15
2016-10-27T03:03:27.586Z,6.05
2016-10-27T03:04:36.997Z,6.01
2016-10-27T03:05:46.552Z,5.99
2016-10-27T03:06:56.351Z,6.1
2016-10-27T03:08:06.119Z,6.15
2016-10-27T03:09:16.241Z,6.16
2016-10-27T03:10:25.686Z,6.13
2016-10-27T03:11:35.632Z,6.16
2016-10-27T03:12:45.404Z,6.05
2016-10-27T03:13:55.308Z,6.06
2016-10-27T03:15:04.719Z,6.05
2016-10-27T03:16:14.176Z,6.09
2016-10-27T03:17:24.484Z,6.07
2016-10-27T03:18:34.243Z,6.06
2016-10-27T03:19:43.695Z,6.16
2016-10-27T03:20:53.231Z,6.2
2016-10-27T03:22:03.048Z,6.19
2016-10-27T03:23:13.303Z,6.17
2016-10-27T03:24:23.685Z,6.16
2016-10-27T03:25:33.202Z,6.16
2016-10-27T03:26:42.657Z,6.16
2016-10-27T03:27:52.097Z,6.19
2016-10-27T03:29:01.546Z,6.26
2016-10-27T03:30:11.380Z,6.2
2016-10-27T03:31:21.134Z,6.25
2016-10-27T03:32:45.395Z,6.28
2016-10-27T03:33:54.934Z,6.35
2016-10-27T03:35:04.622Z,6.35
2016-10-27T03:36:14.567Z,6.39
2016-10-27T03:37:24.527Z,6.5
2016-10-27T03:38:34.514Z,6.59
2016-10-27T03:39:44.398Z,7.05
2016-10-27T03:40:53.922Z,7.43
2016-10-27T03:42:04.211Z,7.43
2016-10-27T03:43:14.252Z,7.39
2016-10-27T03:44:23.709Z,7.4
2016-10-27T03:45:34.781Z,7.28
2016-10-27T03:46:44.852Z,7.26
2016-10-27T03:47:54.814Z,7.23
2016-10-27T03:49:04.438Z,7.29
2016-10-27T03:50:14.000Z,7.22
2016-10-27T03:51:23.795Z,7.11
2016-10-27T03:52:33.245Z,7.13
2016-10-27T03:53:43.386Z,7.1
2016-10-27T03:54:53.340Z,7.1
2016-10-27T03:56:03.249Z,7.11
2016-10-27T03:57:13.112Z,7.11
2016-10-27T03:58:22.633Z,7.1
2016-10-27T03:59:32.527Z,7.15
2016-10-27T04:00:42.525Z,7.07
2016-10-27T04:01:52.519Z,7.07
2016-10-27T04:03:03.293Z,7.07
2016-10-27T04:04:13.048Z,7.05
2016-10-27T04:05:24.512Z,6.97
2016-10-27T04:06:35.185Z,6.89
2016-10-27T04:07:44.771Z,6.97
2016-10-27T04:08:54.400Z,6.97
2016-10-27T04:10:04.382Z,6.96
2016-10-27T04:11:14.627Z,7.04
2016-10-27T04:12:24.944Z,7.03
2016-10-27T04:13:36.150Z,7.04
2016-10-27T04:14:46.724Z,7
2016-10-27T04:15:56.746Z,6.93
2016-10-27T04:17:07.849Z,7
2016-10-27T04:18:18.365Z,7.01
2016-10-27T04:19:28.536Z,7.11
2016-10-27T04:20:39.234Z,7.1
2016-10-27T04:21:49.940Z,7.11
2016-10-27T04:23:00.007Z,7.11
2016-10-27T04:24:09.951Z,7.29
2016-10-27T04:25:20.050Z,7.46
2016-10-27T04:26:29.996Z,7.44
2016-10-27T04:27:40.600Z,7.46
2016-10-27T04:28:54.831Z,7.43
2016-10-27T04:30:09.226Z,7.37
2016-10-27T04:31:19.963Z,7.4
2016-10-27T04:32:44.570Z,7.33
2016-10-27T04:33:56.176Z,7.43
2016-10-27T04:35:06.725Z,7.43
2016-10-27T04:36:24.312Z,7.39
2016-10-27T04:37:41.272Z,7.4
2016-10-27T04:39:00.560Z,7.41
2016-10-27T04:40:18.133Z,7.46
2016-10-27T04:41:36.270Z,7.39
2016-10-27T04:42:55.055Z,7.4
2016-10-27T04:44:09.794Z,7.43
2016-10-27T04:45:38.385Z,7.44
2016-10-27T04:46:55.539Z,7.4
2016-10-27T04:48:21.840Z,7.44
2016-10-27T04:49:31.845Z,7.39
2016-10-27T04:50:41.834Z,7.46
2016-10-27T04:51:52.746Z,7.41
2016-10-27T04:53:03.649Z,7.44
2016-10-27T04:54:15.394Z,7.47
2016-10-27T04:55:26.379Z,7.43
2016-10-27T04:56:37.687Z,7.51
2016-10-27T04:57:47.787Z,7.39
2016-10-27T04:58:57.806Z,7.31
2016-10-27T05:00:09.935Z,7.19
2016-10-27T05:01:21.455Z,7.14
2016-10-27T05:02:31.501Z,7.15
2016-10-27T05:05:05.641Z,7.18
2016-10-27T05:06:15.680Z,7.03
2016-10-27T05:07:26.122Z,7.01
2016-10-27T05:08:35.745Z,7.01
2016-10-27T05:09:45.425Z,7.01
2016-10-27T05:10:55.527Z,7.05
2016-10-27T05:12:05.177Z,7.01
2016-10-27T05:13:15.300Z,7.01
2016-10-27T05:14:26.352Z,7.01
2016-10-27T05:15:36.797Z,7.05
2016-10-27T05:16:46.927Z,6.97
2016-10-27T05:17:57.096Z,7.03
2016-10-27T05:19:07.267Z,7.01
2016-10-27T05:20:17.292Z,6.95
2016-10-27T05:21:27.273Z,6.97
2016-10-27T05:22:37.726Z,6.97
2016-10-27T05:23:47.533Z,6.93
2016-10-27T05:24:57.734Z,6.86
2016-10-27T05:26:07.247Z,6.83
2016-10-27T05:27:16.720Z,6.9
2016-10-27T05:28:26.633Z,6.85
2016-10-27T05:29:36.603Z,6.96
2016-10-27T05:30:46.093Z,7.05
2016-10-27T05:31:55.992Z,7
2016-10-27T05:33:05.605Z,7.04
2016-10-27T05:34:15.517Z,7.03
2016-10-27T05:35:25.203Z,7.03
2016-10-27T05:36:34.751Z,7
2016-10-27T05:37:44.906Z,7.05
2016-10-27T05:38:55.010Z,7.05
2016-10-27T05:40:06.106Z,6.97
2016-10-27T05:41:16.084Z,7.04
2016-10-27T05:42:25.659Z,7.03
2016-10-27T05:43:35.231Z,7.13
2016-10-27T05:44:45.033Z,7.11
2016-10-27T05:45:55.303Z,7.15
2016-10-27T05:47:06.670Z,7.22
2016-10-27T05:48:16.920Z,7.15
2016-10-27T05:49:26.917Z,7.25
2016-10-27T05:50:36.346Z,7.1
2016-10-27T05:51:46.143Z,7.29
2016-10-27T05:52:55.581Z,7.25
2016-10-27T05:54:05.585Z,7.25
2016-10-27T05:55:15.336Z,7.28
2016-10-27T05:56:25.007Z,7.31
2016-10-27T05:57:35.220Z,7.22
2016-10-27T05:58:45.334Z,7.11
2016-10-27T05:59:55.179Z,7.14
2016-10-27T06:01:05.185Z,7.15
2016-10-27T06:02:15.114Z,7.32
2016-10-27T06:03:24.967Z,7.29
2016-10-27T06:04:35.081Z,7.26
2016-10-27T06:05:44.936Z,7.29
2016-10-27T06:06:54.506Z,7.32
2016-10-27T06:08:04.084Z,7.15
2016-10-27T06:09:14.288Z,7.26
2016-10-27T06:10:23.802Z,7.15
2016-10-27T06:11:34.007Z,7.26
2016-10-27T06:12:43.484Z,7.31
2016-10-27T06:13:53.339Z,7.31
2016-10-27T06:15:03.139Z,7.26
2016-10-27T06:16:13.390Z,7.25
2016-10-27T06:17:23.477Z,7.28
2016-10-27T06:18:33.397Z,7.26
2016-10-27T06:19:42.958Z,7.29
2016-10-27T06:20:53.201Z,7.41
2016-10-27T06:22:02.872Z,7.28
2016-10-27T06:23:12.953Z,7.26
2016-10-27T06:24:22.526Z,7.28
2016-10-27T06:25:31.993Z,7.31
2016-10-27T06:26:41.899Z,7.36
2016-10-27T06:27:52.116Z,7.33
2016-10-27T06:29:01.783Z,7.37
2016-10-27T06:30:11.884Z,7.4
2016-10-27T06:31:21.741Z,7.37
2016-10-27T06:32:31.846Z,7.4
2016-10-27T06:33:41.828Z,7.37
2016-10-27T06:34:51.470Z,7.41
2016-10-27T06:36:00.987Z,7.31
2016-10-27T06:37:10.500Z,7.44
2016-10-27T06:38:21.140Z,7.47
2016-10-27T06:39:30.857Z,7.47
2016-10-27T06:40:40.950Z,7.5
2016-10-27T06:41:50.894Z,7.46
2016-10-27T06:43:00.588Z,7.47
2016-10-27T06:44:10.529Z,7.61
2016-10-27T06:45:21.280Z,7.62
2016-10-27T06:46:30.907Z,7.59
2016-10-27T06:47:40.875Z,7.59
2016-10-27T06:48:50.570Z,7.59
2016-10-27T06:50:00.432Z,7.66
2016-10-27T06:51:10.159Z,7.58
2016-10-27T06:52:19.784Z,7.56
2016-10-27T06:53:29.637Z,7.61
2016-10-27T06:54:39.471Z,7.75
2016-10-27T06:55:49.707Z,7.58
2016-10-27T06:57:00.161Z,7.59
2016-10-27T06:58:09.962Z,7.64
2016-10-27T06:59:19.619Z,7.7
2016-10-27T07:00:29.855Z,7.67
2016-10-27T07:01:39.679Z,7.64
2016-10-27T07:02:49.495Z,7.77
2016-10-27T07:03:58.948Z,7.8
2016-10-27T07:05:23.256Z,7.84
2016-10-27T07:06:33.214Z,7.7
2016-10-27T07:07:43.727Z,7.83
2016-10-27T07:08:53.910Z,7.84
2016-10-27T07:10:03.770Z,7.85
2016-10-27T07:11:13.268Z,7.85
2016-10-27T07:12:22.807Z,7.81
2016-10-27T07:13:32.801Z,7.91
2016-10-27T07:14:42.279Z,7.95
2016-10-27T07:15:51.850Z,7.93
2016-10-27T07:17:02.594Z,7.96
2016-10-27T07:18:12.150Z,8.08
2016-10-27T07:19:21.926Z,8.05
2016-10-27T07:20:31.377Z,8.09
2016-10-27T07:21:41.578Z,8.17
2016-10-27T07:22:52.437Z,8.18
2016-10-27T07:24:02.253Z,8.18
2016-10-27T07:25:12.517Z,8.09
2016-10-27T07:26:36.737Z,8.14
2016-10-27T07:27:46.270Z,8.18
2016-10-27T07:28:56.499Z,8.24
2016-10-27T07:30:06.258Z,8.34
2016-10-27T07:31:16.056Z,8.35
2016-10-27T07:32:25.956Z,8.32
2016-10-27T07:33:35.802Z,8.26
2016-10-27T07:34:45.294Z,8.36
2016-10-27T07:35:54.776Z,8.36
2016-10-27T07:37:05.188Z,8.36
2016-10-27T07:38:15.111Z,8.42
2016-10-27T07:39:24.647Z,8.39
2016-10-27T07:40:34.410Z,8.38
2016-10-27T07:41:44.640Z,8.44
2016-10-27T07:42:54.408Z,8.42
2016-10-27T07:44:03.983Z,8.41
2016-10-27T07:45:13.559Z,8.59
2016-10-27T07:46:23.120Z,8.59
2016-10-27T07:47:32.952Z,8.6
2016-10-27T07:48:42.731Z,8.59
2016-10-27T07:49:52.680Z,8.6
2016-10-27T07:51:02.521Z,8.59
2016-10-27T07:52:12.333Z,8.6
2016-10-27T07:53:22.221Z,8.54
2016-10-27T07:54:32.068Z,8.57
2016-10-27T07:55:41.556Z,8.52
2016-10-27T07:56:51.021Z,8.41
2016-10-27T07:58:00.848Z,8.52
2016-10-27T07:59:10.682Z,8.54
2016-10-27T08:00:20.651Z,8.57
2016-10-27T08:01:30.209Z,8.6
2016-10-27T08:02:39.730Z,8.64
2016-10-27T08:03:50.927Z,8.71
2016-10-27T08:05:00.454Z,8.78
2016-10-27T08:06:10.618Z,8.86
2016-10-27T08:07:20.211Z,8.78
2016-10-27T08:08:30.271Z,8.81
2016-10-27T08:09:39.722Z,8.92
2016-10-27T08:10:49.372Z,8.95
2016-10-27T08:11:59.914Z,9.09
2016-10-27T08:13:09.520Z,9.16
2016-10-27T08:14:19.475Z,9.19
2016-10-27T08:15:29.241Z,9.19
2016-10-27T08:16:39.266Z,9.29
2016-10-27T08:17:50.059Z,9.39
2016-10-27T08:18:59.640Z,9.49
2016-10-27T08:20:10.197Z,9.39
2016-10-27T08:21:19.954Z,9.55
2016-10-27T08:22:29.729Z,9.67
2016-10-27T08:23:40.384Z,9.69
2016-10-27T08:24:51.470Z,9.84
2016-10-27T08:26:01.566Z,9.85
2016-10-27T08:27:11.488Z,9.95
2016-10-27T08:28:21.905Z,10.02
2016-10-27T08:29:31.795Z,10.02
2016-10-27T08:30:42.451Z,10.06
2016-10-27T08:31:52.014Z,9.99
2016-10-27T08:33:01.697Z,9.94
2016-10-27T08:34:12.020Z,9.97
2016-10-27T08:35:21.868Z,10.06
2016-10-27T08:36:31.566Z,10
2016-10-27T08:37:41.762Z,10.03
2016-10-27T08:38:51.659Z,10.2
2016-10-27T08:40:01.206Z,10.2
2016-10-27T08:41:11.350Z,10.18
2016-10-27T08:42:22.074Z,10.18
2016-10-27T08:43:31.790Z,10.24
2016-10-27T08:44:41.815Z,10.2
2016-10-27T08:45:51.861Z,10.18
2016-10-27T08:47:01.931Z,10.21
2016-10-27T08:48:12.010Z,10.12
2016-10-27T08:49:21.647Z,10.2
2016-10-27T08:50:31.214Z,10.24
2016-10-27T08:51:41.031Z,10.28
2016-10-27T08:52:51.258Z,10.36
2016-10-27T08:54:00.743Z,10.41
2016-10-27T08:55:11.077Z,10.49
2016-10-27T08:56:20.860Z,10.61
2016-10-27T08:57:30.682Z,10.59
2016-10-27T08:58:41.162Z,10.68
2016-10-27T08:59:50.724Z,10.67
2016-10-27T09:01:00.511Z,10.71
2016-10-27T09:02:10.609Z,10.8
2016-10-27T09:03:20.819Z,10.8
2016-10-27T09:04:30.780Z,10.69
2016-10-27T09:05:55.106Z,10.62
2016-10-27T09:07:05.454Z,10.67
2016-10-27T09:08:15.425Z,10.67
2016-10-27T09:09:24.973Z,10.71
2016-10-27T09:10:34.738Z,10.76
2016-10-27T09:11:44.799Z,10.87
2016-10-27T09:12:54.701Z,10.92
2016-10-27T09:14:04.585Z,11.01
2016-10-27T09:15:14.204Z,11.04
2016-10-27T09:16:24.411Z,11.1
2016-10-27T09:17:34.142Z,11.22
2016-10-27T09:18:44.096Z,11.19
2016-10-27T09:19:54.109Z,11.27
2016-10-27T09:21:04.051Z,11.04
2016-10-27T09:22:13.884Z,11.04
2016-10-27T09:23:23.706Z,11.23
2016-10-27T09:24:33.554Z,11.2
2016-10-27T09:25:43.285Z,11.26
2016-10-27T09:26:52.982Z,11.27
2016-10-27T09:28:02.832Z,11.31
2016-10-27T09:29:12.283Z,11.35
2016-10-27T09:30:22.618Z,11.44
2016-10-27T09:31:32.500Z,11.41
2016-10-27T09:32:42.043Z,11.38
2016-10-27T09:33:52.929Z,11.45
2016-10-27T09:35:02.881Z,11.52
2016-10-27T09:36:12.513Z,11.65
2016-10-27T09:37:22.142Z,11.56
2016-10-27T09:38:31.738Z,11.59
2016-10-27T09:39:42.076Z,11.55
2016-10-27T09:40:51.879Z,11.73
2016-10-27T09:42:01.463Z,11.58
2016-10-27T09:43:11.365Z,11.53
2016-10-27T09:44:21.556Z,11.65
2016-10-27T09:45:31.492Z,11.83
2016-10-27T09:46:41.174Z,11.68
2016-10-27T09:47:50.954Z,11.83
2016-10-27T09:49:00.472Z,11.96
2016-10-27T09:50:11.318Z,11.96
2016-10-27T09:51:21.286Z,12
2016-10-27T09:52:31.029Z,11.91
2016-10-27T09:53:40.771Z,11.85
2016-10-27T09:54:50.684Z,11.68
2016-10-27T09:56:00.282Z,11.7
2016-10-27T09:57:10.130Z,11.81
2016-10-27T09:58:19.660Z,11.81
2016-10-27T09:59:29.359Z,11.83
2016-10-27T10:00:39.713Z,11.83
2016-10-27T10:01:49.580Z,11.83
2016-10-27T10:02:59.821Z,11.81
2016-10-27T10:04:09.444Z,11.91
2016-10-27T10:05:19.725Z,12
2016-10-27T10:06:29.865Z,12
2016-10-27T10:07:40.670Z,12.02
2016-10-27T10:08:50.672Z,12.07
2016-10-27T10:10:00.725Z,12.15
2016-10-27T10:11:10.357Z,12.18
2016-10-27T10:12:21.074Z,12.21
2016-10-27T10:13:31.281Z,12.36
2016-10-27T10:14:41.070Z,12.39
2016-10-27T10:15:50.533Z,12.43
2016-10-27T10:17:00.221Z,12.44
2016-10-27T10:18:09.941Z,12.44
2016-10-27T10:19:19.541Z,12.55
2016-10-27T10:20:29.981Z,12.61
2016-10-27T10:21:39.549Z,12.72
2016-10-27T10:23:04.182Z,12.43
2016-10-27T10:24:14.920Z,12.4
2016-10-27T10:25:25.278Z,12.44
2016-10-27T10:26:35.727Z,12.43
2016-10-27T10:27:45.464Z,12.54
2016-10-27T10:28:55.756Z,12.68
2016-10-27T10:30:05.624Z,12.78
2016-10-27T10:31:16.148Z,12.98
2016-10-27T10:32:25.927Z,13.03
2016-10-27T10:33:35.710Z,12.95
2016-10-27T10:34:46.245Z,12.95
2016-10-27T10:35:56.170Z,12.98
2016-10-27T10:37:20.409Z,12.98
2016-10-27T10:38:30.349Z,12.94
2016-10-27T10:39:40.559Z,12.99
2016-10-27T10:40:50.098Z,13.02
2016-10-27T10:41:59.686Z,13.19
2016-10-27T10:43:10.178Z,13.09
2016-10-27T10:44:20.646Z,13.08
2016-10-27T10:45:30.323Z,12.99
2016-10-27T10:46:39.781Z,13.09
2016-10-27T10:47:49.601Z,13.09
2016-10-27T10:48:59.169Z,13.05
2016-10-27T10:50:09.046Z,12.98
2016-10-27T10:51:19.212Z,12.88
2016-10-27T10:52:28.901Z,12.9
2016-10-27T10:53:38.507Z,12.95
2016-10-27T10:54:48.466Z,12.93
2016-10-27T10:55:58.965Z,13.03
2016-10-27T10:57:08.752Z,12.99
2016-10-27T10:58:18.592Z,12.87
2016-10-27T10:59:28.232Z,12.98
2016-10-27T11:00:37.808Z,13.01
2016-10-27T11:01:47.996Z,13.01
2016-10-27T11:02:57.872Z,13.06
2016-10-27T11:04:08.275Z,13.16
2016-10-27T11:05:17.783Z,13.21
2016-10-27T11:06:27.323Z,13.21
2016-10-27T11:07:37.545Z,13.09
2016-10-27T11:08:47.416Z,13.09
2016-10-27T11:09:57.031Z,13.12
2016-10-27T11:11:06.581Z,13.24
2016-10-27T11:12:16.134Z,13.21
2016-10-27T11:13:26.381Z,13.23
2016-10-27T11:14:36.194Z,13.2
2016-10-27T11:15:46.115Z,13.19
2016-10-27T11:16:56.214Z,13.13
2016-10-27T11:18:05.869Z,13.21
2016-10-27T11:19:15.603Z,13.21
2016-10-27T11:20:25.512Z,13.16
2016-10-27T11:21:35.268Z,13.11
2016-10-27T11:22:44.761Z,13.13
2016-10-27T11:23:54.319Z,13.16
2016-10-27T11:25:05.198Z,12.99
2016-10-27T11:26:14.885Z,13.08
2016-10-27T11:27:24.985Z,13.06
2016-10-27T11:28:34.579Z,13.11
2016-10-27T11:29:44.303Z,13.12
2016-10-27T11:30:54.817Z,13.08
2016-10-27T11:32:04.458Z,13.16
2016-10-27T11:33:14.005Z,13.11
2016-10-27T11:34:23.965Z,13.2
2016-10-27T11:35:34.020Z,13.11
2016-10-27T11:36:43.955Z,13.21
2016-10-27T11:37:53.523Z,13.21
2016-10-27T11:39:03.472Z,13.2
2016-10-27T11:40:13.498Z,13.2
2016-10-27T11:41:23.186Z,13.23
2016-10-27T11:42:33.496Z,13.24
2016-10-27T11:43:44.399Z,13.3
2016-10-27T11:46:18.756Z,13.37
2016-10-27T11:47:28.649Z,13.43
2016-10-27T11:48:38.677Z,13.36
2016-10-27T11:49:48.909Z,13.4
2016-10-27T11:50:58.488Z,13.33
2016-10-27T11:52:08.155Z,13.24
2016-10-27T11:53:18.132Z,13.39
2016-10-27T11:54:27.904Z,13.46
2016-10-27T11:55:37.426Z,13.4
2016-10-27T11:56:48.139Z,13.58
2016-10-27T11:57:58.446Z,13.61
2016-10-27T11:59:08.465Z,13.67
2016-10-27T12:00:19.354Z,13.67
2016-10-27T12:01:29.259Z,13.62
2016-10-27T12:02:53.920Z,13.58
2016-10-27T12:04:04.302Z,13.57
2016-10-27T12:05:14.749Z,13.62
2016-10-27T12:06:24.504Z,13.7
2016-10-27T12:07:34.070Z,13.68
2016-10-27T12:08:43.619Z,13.76
2016-10-27T12:09:54.120Z,13.7
2016-10-27T12:11:04.390Z,13.68
2016-10-27T12:12:14.249Z,13.85
2016-10-27T12:13:23.832Z,13.8
2016-10-27T12:14:33.984Z,13.78
2016-10-27T12:15:43.849Z,13.8
2016-10-27T12:16:53.514Z,13.8
2016-10-27T12:18:03.601Z,13.78
2016-10-27T12:19:13.220Z,13.89
2016-10-27T12:20:22.865Z,13.89
2016-10-27T12:21:32.393Z,13.94
2016-10-27T12:22:42.224Z,14.03
2016-10-27T12:23:51.956Z,14.08
2016-10-27T12:25:01.899Z,14.05
2016-10-27T12:26:11.729Z,14.08
2016-10-27T12:27:21.555Z,14.12
2016-10-27T12:28:31.485Z,14.04
2016-10-27T12:29:41.825Z,14.07
2016-10-27T12:30:51.440Z,14.11
2016-10-27T12:32:01.680Z,14.16
2016-10-27T12:33:11.203Z,14.2
2016-10-27T12:34:20.704Z,14.08
2016-10-27T12:35:31.194Z,14.15
2016-10-27T12:36:41.286Z,14.22
2016-10-27T12:37:51.033Z,14.22
2016-10-27T12:39:01.246Z,14.34
2016-10-27T12:40:11.516Z,14.37
2016-10-27T12:41:21.661Z,14.44
2016-10-27T12:42:31.691Z,14.48
2016-10-27T12:43:41.256Z,14.41
2016-10-27T12:44:50.789Z,14.49
2016-10-27T12:46:00.310Z,14.51
2016-10-27T12:47:10.163Z,14.43
2016-10-27T12:48:20.195Z,14.43
2016-10-27T12:49:29.708Z,14.52
2016-10-27T12:50:39.461Z,14.52
2016-10-27T12:51:49.228Z,14.67
2016-10-27T12:52:59.416Z,14.74
2016-10-27T12:54:08.959Z,14.77
2016-10-27T12:55:19.066Z,14.7
2016-10-27T12:56:28.547Z,14.68
2016-10-27T12:57:38.447Z,14.74
2016-10-27T12:58:48.172Z,14.66
2016-10-27T12:59:58.471Z,14.66
2016-10-27T13:01:08.023Z,14.74
2016-10-27T13:02:18.390Z,14.66
2016-10-27T13:03:27.920Z,14.81
2016-10-27T13:04:37.874Z,14.78
2016-10-27T13:05:47.424Z,14.79
2016-10-27T13:06:57.535Z,14.79
2016-10-27T13:08:07.674Z,14.73
2016-10-27T13:09:18.343Z,14.55
2016-10-27T13:10:28.970Z,14.51
2016-10-27T13:11:38.494Z,14.56
2016-10-27T13:12:48.507Z,14.53
2016-10-27T13:13:58.205Z,14.63
2016-10-27T13:15:08.599Z,14.63
2016-10-27T13:16:18.651Z,14.66
2016-10-27T13:17:28.767Z,14.53
2016-10-27T13:18:38.481Z,14.56
2016-10-27T13:19:48.535Z,14.62
2016-10-27T13:20:58.106Z,14.62
2016-10-27T13:22:07.982Z,14.73
2016-10-27T13:23:17.672Z,14.78
2016-10-27T13:24:27.722Z,14.71
2016-10-27T13:25:37.804Z,14.67
2016-10-27T13:26:48.252Z,14.7
2016-10-27T13:27:59.370Z,14.78
2016-10-27T13:29:25.497Z,14.68
2016-10-27T13:30:36.174Z,14.67
2016-10-27T13:31:46.001Z,14.62
2016-10-27T13:32:55.691Z,14.68
2016-10-27T13:34:05.659Z,14.79
2016-10-27T13:35:15.644Z,14.7
2016-10-27T13:36:25.796Z,14.68
2016-10-27T13:37:35.991Z,14.74
2016-10-27T13:38:46.523Z,14.71
2016-10-27T13:39:56.384Z,14.74
2016-10-27T13:41:21.333Z,14.53
2016-10-27T13:42:31.253Z,14.53
2016-10-27T13:43:41.076Z,14.66
2016-10-27T13:44:50.667Z,14.78
2016-10-27T13:46:00.675Z,14.81
2016-10-27T13:47:10.891Z,14.79
2016-10-27T13:48:21.503Z,14.81
2016-10-27T13:49:31.689Z,14.79
2016-10-27T13:50:41.531Z,14.81
2016-10-27T13:51:51.976Z,14.68
2016-10-27T13:53:02.174Z,14.81
2016-10-27T13:54:12.055Z,14.78
2016-10-27T13:55:22.003Z,14.71
2016-10-27T13:56:31.921Z,14.53
2016-10-27T13:57:42.927Z,14.53
2016-10-27T13:58:52.879Z,14.61
2016-10-27T14:00:02.499Z,14.67
2016-10-27T14:01:12.459Z,14.68
2016-10-27T14:02:22.219Z,14.68
2016-10-27T14:03:32.755Z,14.67
2016-10-27T14:04:43.403Z,14.7
2016-10-27T14:05:53.082Z,14.78
2016-10-27T14:07:03.119Z,14.78
2016-10-27T14:08:13.164Z,14.7
2016-10-27T14:09:23.153Z,14.68
2016-10-27T14:10:33.832Z,14.77
2016-10-27T14:11:43.610Z,14.7
2016-10-27T14:12:53.865Z,14.78
2016-10-27T14:14:03.813Z,14.81
2016-10-27T14:15:14.017Z,14.79
2016-10-27T14:16:24.574Z,14.78
2016-10-27T14:17:34.862Z,14.85
2016-10-27T14:18:44.583Z,14.82
2016-10-27T14:19:54.855Z,14.73
2016-10-27T14:21:05.284Z,14.81
2016-10-27T14:22:15.788Z,14.78
2016-10-27T14:23:25.851Z,14.73
2016-10-27T14:24:36.143Z,14.82
2016-10-27T14:25:45.773Z,14.86
2016-10-27T14:26:57.371Z,14.82
2016-10-27T14:28:07.694Z,14.82
2016-10-27T14:29:17.922Z,14.82
2016-10-27T14:30:27.532Z,14.79
2016-10-27T14:31:38.922Z,14.73
2016-10-27T14:32:51.161Z,14.74
2016-10-27T14:34:18.196Z,14.78
2016-10-27T14:35:27.854Z,14.79
2016-10-27T14:36:38.036Z,14.82
2016-10-27T14:37:48.415Z,14.79
2016-10-27T14:38:58.510Z,14.78
2016-10-27T14:40:08.358Z,14.71
2016-10-27T14:41:19.131Z,14.63
2016-10-27T14:42:29.300Z,14.56
2016-10-27T14:43:39.528Z,14.52
2016-10-27T14:44:49.734Z,14.43
2016-10-27T14:46:00.274Z,14.44
2016-10-27T14:47:13.926Z,14.36
2016-10-27T14:48:49.293Z,14.34
2016-10-27T14:50:10.966Z,14.48
2016-10-27T14:51:30.914Z,14.4
2016-10-27T14:52:50.924Z,14.45
2016-10-27T14:54:13.117Z,14.34
2016-10-27T14:55:29.718Z,14.38
2016-10-27T14:56:40.025Z,14.37
2016-10-27T14:57:50.223Z,14.37
2016-10-27T14:59:01.117Z,14.26
2016-10-27T15:00:26.618Z,14.34
2016-10-27T15:01:36.407Z,14.31
2016-10-27T15:02:46.979Z,14.43
2016-10-27T15:05:23.827Z,14.23
2016-10-27T15:06:33.628Z,14.18
2016-10-27T15:07:44.246Z,14.12
2016-10-27T15:09:09.811Z,14.16
2016-10-27T15:10:20.726Z,14.18
2016-10-27T15:11:45.282Z,14.11
2016-10-27T15:12:55.295Z,14.12
2016-10-27T15:14:05.152Z,14.18
2016-10-27T15:15:14.937Z,14.05
2016-10-27T15:16:24.519Z,14.19
2016-10-27T15:17:34.694Z,14.18
2016-10-27T15:23:16.913Z,14.08
2016-10-27T15:24:27.164Z,14.11
2016-10-27T15:25:37.176Z,14.12
2016-10-27T15:26:48.229Z,14.08
2016-10-27T15:27:57.949Z,14.15
2016-10-27T15:31:31.282Z,14.05
2016-10-27T15:32:41.762Z,14.07
2016-10-27T15:33:51.327Z,14.05
2016-10-27T15:35:00.937Z,14.04
2016-10-27T15:36:10.498Z,14
2016-10-27T15:37:20.237Z,13.97
2016-10-27T15:38:30.797Z,13.93
2016-10-27T15:39:40.415Z,14.03
2016-10-27T15:40:50.093Z,13.98
2016-10-27T15:41:59.959Z,13.82